Flight Track Log - Related Links

Times and Time Zones

All times are in EDT time to prevent confusion due to time zone crossing. See the UAL822 flight status page for this flight to view local times or setup timezone preferences in your user account.

Time Position Orientation Groundspeed Altitude Reporting Facility
EDT Latitude Longitude Course Direction KTS MPH feet Rate Location/Type
Sat 01:19:47 PM 41.9167 -87.9500 253° West 154 177 3,200  Level Chicago TRACON
Sat 01:21:00 PM 41.8834 -88.3161 255° West  Level FlightAware Approximate
Sat 01:21:39 PM 41.8383 -88.0436 222° Southwest 237 273 6,500  Level Chicago Center
Sat 01:22:00 PM 41.8402 -88.4489 255° West  Level FlightAware Approximate
Sat 01:22:41 PM 41.7847 -88.1114 223° Southwest 265 305 9,300  Level Chicago Center
Sat 01:23:00 PM 41.8101 -88.5888 254° West  Level FlightAware Approximate
Sat 01:23:43 PM 41.7550 -88.2156 249° West 320 368 10,700  Level Chicago Center
Sat 01:24:00 PM 41.7791 -88.7283 253° West  Level FlightAware Approximate
Sat 01:24:45 PM 41.7533 -88.3769 269° West 364 419 13,100  Level Chicago Center
Sat 01:25:00 PM 41.7480 -88.8677 253° West  Level FlightAware Approximate
Sat 01:25:46 PM 41.7522 -88.5197 269° West 384 442 15,200  Level Chicago Center
Sat 01:26:48 PM 41.7514 -88.6675 270° West 399 459 17,200 2,419 Climbing Chicago Center
Sat 01:27:50 PM 41.7317 -88.8108 260° West 394 453 20,200 2,710 Climbing Chicago Center
Sat 01:28:52 PM 41.7044 -88.9386 254° West 366 421 22,800 1,854 Climbing Chicago Center
Sat 01:29:53 PM 41.6708 -89.0914 254° West 360 414 24,000 585 Climbing Chicago Center
Sat 01:30:55 PM 41.6436 -89.2200 254° West 362 417 24,000  Level Chicago Center
Sat 01:31:57 PM 41.6131 -89.3586 254° West 391 450 24,000  Level Chicago Center
Sat 01:32:59 PM 41.5778 -89.5133 253° West 435 501 24,000  Level Chicago Center
Sat 01:34:00 PM 41.5433 -89.6725 254° West 457 526 24,000  Level Chicago Center
Sat 01:35:02 PM 41.5075 -89.8344 254° West 459 528 24,000  Level Chicago Center
Sat 01:36:04 PM 41.4633 -90.0267 253° West 458 527 24,000 -48 Level Chicago Center
Sat 01:37:06 PM 41.4264 -90.1878 253° West 458 527 23,900  Descending Chicago Center
Sat 01:38:07 PM 41.3892 -90.3500 253° West 460 529 24,000 49 Climbing Chicago Center
Sat 01:39:09 PM 41.3525 -90.5119 253° West 460 529 24,000  Level Chicago Center
Sat 01:40:11 PM 41.3000 -90.6731 247° West 481 554 24,000  Level Chicago Center
Sat 01:41:13 PM 41.2236 -90.8044 232° Southwest 456 525 24,000  Level Chicago Center
Sat 01:42:14 PM 41.1289 -90.9642 232° Southwest 460 529 24,000  Level Chicago Center
Sat 01:43:16 PM 41.0508 -91.0947 232° Southwest 455 524 24,000  Level Chicago Center
Sat 01:44:18 PM 40.9722 -91.2258 232° Southwest 456 525 24,000  Level Chicago Center
Sat 01:45:20 PM 40.8894 -91.3656 232° Southwest 460 529 24,000  Level Chicago Center
Sat 01:46:22 PM 40.8114 -91.4961 232° Southwest 458 527 24,000  Level Chicago Center
Sat 01:47:23 PM 40.7314 -91.6250 231° Southwest 457 526 24,000  Level Chicago Center
Sat 01:48:25 PM 40.6519 -91.7553 231° Southwest 459 528 24,000 339 Level Chicago Center
Sat 01:49:27 PM 40.5742 -91.8842 232° Southwest 453 521 24,700 1,171 Climbing Chicago Center
Sat 01:50:28 PM 40.4794 -92.0369 231° Southwest 451 519 26,400 1,276 Climbing Chicago Center
Sat 01:51:34 PM 40.3997 -92.1667 231° Southwest 455 524 27,400 1,125 Climbing Kansas City Center
Sat 01:52:36 PM 40.3192 -92.2961 231° Southwest 458 527 28,800 1,258 Climbing Kansas City Center
Sat 01:53:38 PM 40.2286 -92.4186 226° Southwest 440 506 30,000 581 Climbing Kansas City Center
Sat 01:54:40 PM 40.1494 -92.5642 235° Southwest 440 506 30,000  Level Kansas City Center
Sat 01:55:42 PM 40.0475 -92.6681 218° Southwest 436 502 30,000  Level Kansas City Center
Sat 01:56:44 PM 39.9456 -92.7539 213° Southwest 438 504 30,000  Level Kansas City Center
Sat 01:57:46 PM 39.8475 -92.8383 213° Southwest 429 494 30,000 194 Level Kansas City Center
Sat 01:58:48 PM 39.7517 -92.9228 214° Southwest 419 482 30,400 677 Climbing Kansas City Center
Sat 01:59:50 PM 39.6536 -93.0069 213° Southwest 424 488 31,400 1,258 Climbing Kansas City Center
Sat 02:00:52 PM 39.5567 -93.0875 213° Southwest 419 482 33,000 1,065 Climbing Kansas City Center
Sat 02:01:54 PM 39.4397 -93.1861 213° Southwest 419 482 33,600 484 Climbing Kansas City Center
Sat 02:02:56 PM 39.3389 -93.2717 213° Southwest 432 497 34,000 194 Climbing Kansas City Center
Sat 02:03:58 PM 39.2386 -93.3564 213° Southwest 435 501 34,000  Level Kansas City Center
Sat 02:05:00 PM 39.1347 -93.4447 213° Southwest 435 501 34,000  Level Kansas City Center
Sat 02:06:02 PM 39.0194 -93.5406 213° Southwest 440 506 34,000  Level Kansas City Center
Sat 02:07:04 PM 38.9094 -93.6325 213° Southwest 438 504 34,000  Level Kansas City Center
Sat 02:08:06 PM 38.8047 -93.7183 213° Southwest 443 510 34,000  Level Kansas City Center
Sat 02:09:08 PM 38.7053 -93.8011 213° Southwest 444 511 34,000  Level Kansas City Center
Sat 02:10:10 PM 38.6061 -93.8831 213° Southwest 443 510 34,000  Level Kansas City Center
Sat 02:11:11 PM 38.4908 -93.9769 213° Southwest 439 505 34,000  Level Kansas City Center
Sat 02:12:13 PM 38.3925 -94.0578 213° Southwest 439 505 34,000  Level Kansas City Center
Sat 02:13:15 PM 38.2756 -94.1525 212° Southwest 440 506 34,000  Level Kansas City Center
Sat 02:14:17 PM 38.1761 -94.2336 213° Southwest 443 510 34,000  Level Kansas City Center
Sat 02:15:19 PM 38.0583 -94.3286 212° Southwest 445 512 34,000  Level Kansas City Center
Sat 02:16:21 PM 37.9575 -94.4094 212° Southwest 447 514 34,000  Level Kansas City Center
Sat 02:17:23 PM 37.8397 -94.5039 212° Southwest 448 516 34,000  Level Kansas City Center
Sat 02:18:25 PM 37.7394 -94.5847 213° Southwest 446 513 34,000  Level Kansas City Center
Sat 02:19:26 PM 37.6350 -94.6681 212° Southwest 442 509 34,000  Level Kansas City Center
Sat 02:20:28 PM 37.5303 -94.7508 212° Southwest 443 510 34,000  Level Kansas City Center
Sat 02:21:30 PM 37.4283 -94.8322 212° Southwest 438 504 34,000  Level Kansas City Center
Sat 02:22:32 PM 37.3264 -94.9142 213° Southwest 433 498 34,000  Level Kansas City Center
Sat 02:23:34 PM 37.2033 -95.0083 211° Southwest 432 497 34,000  Level Kansas City Center
Sat 02:24:36 PM 37.1014 -95.0883 212° Southwest 432 497 34,000  Level Kansas City Center
Sat 02:25:37 PM 36.9997 -95.1681 212° Southwest 431 496 34,000  Level Kansas City Center
Sat 02:26:39 PM 36.8983 -95.2467 212° Southwest 429 494 34,000  Level Kansas City Center
Sat 02:27:41 PM 36.7981 -95.3250 212° Southwest 427 491 34,000  Level Kansas City Center
Sat 02:28:43 PM 36.6967 -95.4044 212° Southwest 430 495 34,000  Level Kansas City Center
Sat 02:29:44 PM 36.5847 -95.4914 212° Southwest 429 494 34,000  Level Kansas City Center
Sat 02:30:46 PM 36.4836 -95.5700 212° Southwest 429 494 34,000  Level Kansas City Center
Sat 02:31:48 PM 36.3808 -95.6472 211° Southwest 430 495 34,000  Level Kansas City Center
Sat 02:32:50 PM 36.2797 -95.7233 211° Southwest 427 491 34,000  Level Kansas City Center
Sat 02:33:51 PM 36.1667 -95.7861 204° Southwest 429 494 34,000  Level Kansas City Center
Sat 02:34:53 PM 36.0483 -95.8108 190° South 430 495 34,000  Level Kansas City Center
Sat 02:35:55 PM 35.9083 -95.8567 195° South 434 499 34,000 484 Level Kansas City Center
Sat 02:36:57 PM 35.7939 -95.8989 197° South 430 495 35,000 823 Climbing Kansas City Center
Sat 02:37:59 PM 35.6797 -95.9403 196° South 427 491 35,700 571 Climbing Kansas City Center
Sat 02:38:42 PM 35.5878 -95.9742 197° South 432 497 36,000 175 Climbing Fort Worth Center
Sat 02:39:42 PM 35.4736 -96.0142 196° South 432 497 36,000  Level Fort Worth Center
Sat 02:40:42 PM 35.3592 -96.0544 196° South 432 497 36,000  Level Fort Worth Center
Sat 02:41:42 PM 35.2469 -96.0942 196° South 432 497 36,000  Level Fort Worth Center
Sat 02:42:42 PM 35.1308 -96.1342 196° South 432 497 36,000  Level Fort Worth Center
Sat 02:43:42 PM 35.0144 -96.1764 197° South 438 504 36,000  Level Fort Worth Center
Sat 02:44:42 PM 34.8978 -96.2161 196° South 438 504 36,000  Level Fort Worth Center
Sat 02:45:42 PM 34.7836 -96.2581 197° South 438 504 36,000  Level Fort Worth Center
Sat 02:46:42 PM 34.6733 -96.2975 196° South 433 498 36,000  Level Fort Worth Center
Sat 02:47:42 PM 34.5631 -96.3342 195° South 428 493 36,000 -50 Level Fort Worth Center
Sat 02:48:42 PM 34.4528 -96.3733 196° South 417 480 35,900  Descending Fort Worth Center
Sat 02:49:42 PM 34.3425 -96.4125 196° South 417 480 36,000 50 Climbing Fort Worth Center
Sat 02:50:42 PM 34.2303 -96.4514 196° South 417 480 36,000  Level Fort Worth Center
Sat 02:51:42 PM 34.1158 -96.4903 196° South 417 480 36,000 50 Level Fort Worth Center
Sat 02:52:42 PM 34.0219 -96.5264 198° South 409 471 36,100  Climbing Fort Worth Center
Sat 02:53:42 PM 33.9075 -96.5625 195° South 415 478 36,000 -50 Descending Fort Worth Center
Sat 02:54:42 PM 33.7950 -96.5986 195° South 421 484 36,000  Level Fort Worth Center
Sat 02:55:42 PM 33.6806 -96.6372 196° South 421 484 36,000  Level Fort Worth Center
Sat 02:56:42 PM 33.5597 -96.6781 196° South 419 482 36,000  Level Fort Worth Center
Sat 02:57:42 PM 33.4472 -96.7164 196° South 419 482 36,000  Level Fort Worth Center
Sat 02:58:42 PM 33.3283 -96.7272 184° South 427 491 36,000  Level Fort Worth Center
Sat 02:59:42 PM 33.2053 -96.7406 185° South 432 497 36,000  Level Fort Worth Center
Sat 03:00:42 PM 33.0842 -96.7539 185° South 439 505 36,000  Level Fort Worth Center
Sat 03:01:42 PM 32.9653 -96.7672 185° South 444 511 36,000  Level Fort Worth Center
Sat 03:02:42 PM 32.8569 -96.7778 185° South 444 511 36,000  Level Fort Worth Center
Sat 03:03:42 PM 32.7336 -96.7911 185° South 444 511 36,000  Level Fort Worth Center
Sat 03:04:42 PM 32.6128 -96.8017 184° South 444 511 36,000  Level Fort Worth Center
Sat 03:05:42 PM 32.4875 -96.7878 175° South 444 511 36,000  Level Fort Worth Center
Sat 03:06:42 PM 32.3597 -96.7519 167° South 456 525 36,000  Level Fort Worth Center
Sat 03:07:42 PM 32.2239 -96.7161 167° South 461 531 36,000  Level Fort Worth Center
Sat 03:08:42 PM 32.1006 -96.6800 166° South 461 531 36,000  Level Fort Worth Center
Sat 03:09:42 PM 31.9750 -96.6444 166° South 467 537 36,000 -50 Level Fort Worth Center
Sat 03:10:42 PM 31.8517 -96.6086 166° South 467 537 35,900 -500 Descending Fort Worth Center
Sat 03:11:42 PM 31.7261 -96.5708 166° South 459 528 35,000 -1,333 Descending Fort Worth Center
Sat 03:12:39 PM 31.6217 -96.5408 166° South 465 535 33,300 -1,950 Descending Houston Center
Sat 03:13:42 PM 31.4953 -96.5058 167° South 462 532 31,100 -2,488 Descending Houston Center
Sat 03:14:42 PM 31.3644 -96.4542 161° South 482 555 28,200 -2,361 Descending Houston Center
Sat 03:15:44 PM 31.2392 -96.3992 159° South 479 551 26,300 -1,452 Descending Houston Center
Sat 03:16:46 PM 31.1233 -96.3208 150° Southeast 476 548 25,200 -1,548 Descending Houston Center
Sat 03:17:48 PM 30.9919 -96.2289 149° Southeast 471 542 23,100 -1,805 Descending Houston Center
Sat 03:18:49 PM 30.8814 -96.1528 149° Southeast 461 531 21,500 -2,098 Descending Houston Center
Sat 03:19:51 PM 30.7675 -96.0786 151° Southeast 461 531 18,800 -2,516 Descending Houston Center
Sat 03:20:53 PM 30.6633 -96.0072 149° Southeast 448 516 16,300 -2,927 Descending Houston Center
Sat 03:21:13 PM 30.6272 -95.9836 151° Southeast 423 487 14,800 -4,000 Descending Houston Center
Sat 03:21:38 PM 30.5828 -95.9522 149° Southeast 423 487 13,300 -2,927 Descending Houston Center
Sat 03:21:54 PM 30.5664 -95.9378 143° Southeast 422 486 12,800 -1,279 Descending Houston Center
Sat 03:22:39 PM 30.4819 -95.8814 150° Southeast 417 480 12,000 -774 Descending Houston Center
Sat 03:22:56 PM 30.4650 -95.8689 148° Southeast 421 484 12,000 -97 Level Houston Center
Sat 03:23:41 PM 30.3886 -95.7956 140° Southeast 414 476 11,900 -290 Descending Houston Center
Sat 03:23:58 PM 30.3786 -95.7844 136° Southeast 413 475 11,700 -1,967 Descending Houston Center
Sat 03:24:42 PM 30.3031 -95.7061 138° Southeast 400 460 9,900 -1,770 Descending Houston Center
Sat 03:24:59 PM 30.2961 -95.6972 132° Southeast 405 466 9,900  Level Houston Center
Sat 03:25:43 PM 30.2392 -95.6244 132° Southeast 315 362 9,900 -97 Level Houston Center
Sat 03:26:01 PM 30.2347 -95.6153 119° Southeast 357 411 9,800 -1,161 Descending Houston Center
Sat 03:26:45 PM 30.2058 -95.5339 112° Southeast 306 352 8,700 -1,574 Descending Houston Center
Sat 03:27:02 PM 30.1950 -95.5081 116° Southeast 309 356 8,200 -1,574 Descending Houston Center
Sat 03:27:46 PM 30.1700 -95.4417 114° Southeast 291 335 7,100 -1,161 Descending Houston Center
Sat 03:28:04 PM 30.1633 -95.4217 111° Southeast 294 338 7,000 -98 Descending Houston Center
Sat 03:28:47 PM 30.1392 -95.3558 113° Southeast 268 308 7,000 97 Level Houston Center
Sat 03:29:06 PM 30.1331 -95.3397 114° Southeast 281 323 7,100  Climbing Houston Center
Sat 03:29:49 PM 30.1117 -95.2844 114° Southeast 244 281 7,000  Descending Houston Center
Sat 03:30:07 PM 30.1072 -95.2686 108° East 248 285 7,100  Climbing Houston Center
Sat 03:30:50 PM 30.0881 -95.2100 111° Southeast 245 282 7,000  Descending Houston Center
Sat 03:31:09 PM 30.0867 -95.1933 95° East 252 290 7,100  Climbing Houston Center
Sat 03:31:51 PM 30.0931 -95.1272 84° East 253 291 7,000  Descending Houston Center
Sat 03:32:11 PM 30.0947 -95.1133 82° East 253 291 7,100  Climbing Houston Center
Sat 03:32:46 PM 30.0947 -95.0569 90° East 252 290 7,000  Descending Houston Center
Sat 03:33:12 PM 30.0961 -95.0322 86° East 252 290 7,100  Climbing Houston Center
Sat 03:33:47 PM 30.0972 -94.9722 89° East 255 293 7,000  Descending Houston Center
Sat 03:34:14 PM 30.0992 -94.9497 84° East 256 295 7,100  Climbing Houston Center
Sat 03:34:48 PM 30.0681 -94.9081 131° Southeast 245 282 7,000  Descending Houston Center
Sat 03:35:15 PM 30.0403 -94.9078 180° South 244 281 7,100 -492 Climbing Houston Center
Sat 03:35:49 PM 30.0136 -94.9319 218° Southwest 220 253 6,500 -1,161 Descending Houston Center
Sat 03:36:17 PM 29.9986 -94.9556 234° Southwest 221 254 5,900 -1,527 Descending Houston Center
Sat 03:36:44 PM 29.9942 -94.9922 262° West 224 258 5,100 -968 Descending Houston Center
Sat 03:37:19 PM 29.9936 -95.0272 269° West 227 261 4,900 -968 Descending Houston Center
Sat 03:37:46 PM 29.9925 -95.0647 268° West 229 264 4,100 -1,180 Descending Houston Center
Sat 03:38:20 PM 29.9933 -95.0989 272° West 226 260 3,700 -706 Descending Houston Center

Login

Don't have an account? Register now (free) for customized features, flight alerts, and more!